sensor_id;sensor_type;location;lat;lon;timestamp;pressure;altitude;pressure_sealevel;temperature;humidity
58082;BME280;43876;55.576;38.242;2022-07-03T00:00:21;99916.75;;;18.55;67.06
58082;BME280;43876;55.576;38.242;2022-07-03T00:02:48;99907.84;;;18.58;67.31
58082;BME280;43876;55.576;38.242;2022-07-03T00:05:16;99903.22;;;18.66;66.33
58082;BME280;43876;55.576;38.242;2022-07-03T00:07:43;99857.34;;;18.37;66.07
58082;BME280;43876;55.576;38.242;2022-07-03T00:10:10;99901.56;;;18.62;66.06
58082;BME280;43876;55.576;38.242;2022-07-03T00:12:37;99866.09;;;18.39;66.55
58082;BME280;43876;55.576;38.242;2022-07-03T00:15:05;99888.69;;;18.50;65.95
58082;BME280;43876;55.576;38.242;2022-07-03T00:17:32;99860.13;;;18.33;65.13
58082;BME280;43876;55.576;38.242;2022-07-03T00:19:59;99896.72;;;18.47;65.25
58082;BME280;43876;55.576;38.242;2022-07-03T00:22:30;99883.59;;;18.44;65.38
58082;BME280;43876;55.576;38.242;2022-07-03T00:25:07;99879.34;;;18.38;65.04
58082;BME280;43876;55.576;38.242;2022-07-03T00:27:34;99835.97;;;18.14;65.32
58082;BME280;43876;55.576;38.242;2022-07-03T00:30:04;99874.22;;;18.32;65.67
58082;BME280;43876;55.576;38.242;2022-07-03T00:32:31;99889.09;;;18.36;65.80
58082;BME280;43876;55.576;38.242;2022-07-03T00:34:59;99835.28;;;18.07;65.15
58082;BME280;43876;55.576;38.242;2022-07-03T00:37:28;99849.03;;;18.18;65.68
58082;BME280;43876;55.576;38.242;2022-07-03T00:39:57;99849.09;;;18.17;66.18
58082;BME280;43876;55.576;38.242;2022-07-03T00:42:26;99886.56;;;18.33;67.08
58082;BME280;43876;55.576;38.242;2022-07-03T00:44:56;99891.06;;;18.29;66.87
58082;BME280;43876;55.576;38.242;2022-07-03T00:47:25;99859.63;;;18.18;67.26
58082;BME280;43876;55.576;38.242;2022-07-03T00:49:54;99856.97;;;18.18;67.73
58082;BME280;43876;55.576;38.242;2022-07-03T00:52:22;99884.00;;;18.28;68.13
58082;BME280;43876;55.576;38.242;2022-07-03T00:54:54;99846.59;;;18.11;68.25
58082;BME280;43876;55.576;38.242;2022-07-03T00:57:23;99877.09;;;18.24;68.29
58082;BME280;43876;55.576;38.242;2022-07-03T00:59:51;99884.00;;;18.28;67.62
58082;BME280;43876;55.576;38.242;2022-07-03T01:03:05;99884.00;;;18.28;67.31
58082;BME280;43876;55.576;38.242;2022-07-03T01:05:13;99875.22;;;18.28;67.22
58082;BME280;43876;55.576;38.242;2022-07-03T01:10:43;99876.53;;;18.44;67.03
58082;BME280;43876;55.576;38.242;2022-07-03T01:13:18;99876.28;;;18.52;67.74
58082;BME280;43876;55.576;38.242;2022-07-03T01:16:55;99863.31;;;18.44;67.96
58082;BME280;43876;55.576;38.242;2022-07-03T01:18:59;99880.81;;;18.48;69.13
58082;BME280;43876;55.576;38.242;2022-07-03T01:27:55;99873.28;;;18.64;68.47
58082;BME280;43876;55.576;38.242;2022-07-03T01:30:13;99878.38;;;18.72;67.26
58082;BME280;43876;55.576;38.242;2022-07-03T01:32:45;99846.03;;;18.62;66.01
58082;BME280;43876;55.576;38.242;2022-07-03T01:35:19;99875.28;;;18.87;64.79
58082;BME280;43876;55.576;38.242;2022-07-03T01:37:48;99881.28;;;18.92;64.20
58082;BME280;43876;55.576;38.242;2022-07-03T01:40:17;99876.34;;;18.81;64.25
58082;BME280;43876;55.576;38.242;2022-07-03T01:42:45;99848.78;;;18.89;63.80
58082;BME280;43876;55.576;38.242;2022-07-03T01:45:14;99864.94;;;19.08;62.99
58082;BME280;43876;55.576;38.242;2022-07-03T01:47:45;99882.13;;;19.22;62.69
58082;BME280;43876;55.576;38.242;2022-07-03T01:50:15;99875.66;;;19.31;62.30
58082;BME280;43876;55.576;38.242;2022-07-03T01:52:43;99875.22;;;19.45;61.65
58082;BME280;43876;55.576;38.242;2022-07-03T01:55:16;99853.22;;;19.43;61.37
58082;BME280;43876;55.576;38.242;2022-07-03T01:57:50;99858.22;;;19.52;61.96
58082;BME280;43876;55.576;38.242;2022-07-03T02:00:21;99848.03;;;19.67;61.01
58082;BME280;43876;55.576;38.242;2022-07-03T02:03:08;99869.59;;;20.08;60.68
58082;BME280;43876;55.576;38.242;2022-07-03T02:05:45;99868.09;;;21.40;57.84
58082;BME280;43876;55.576;38.242;2022-07-03T02:08:26;99868.25;;;23.54;51.87
58082;BME280;43876;55.576;38.242;2022-07-03T02:11:08;99863.22;;;25.62;45.83
58082;BME280;43876;55.576;38.242;2022-07-03T02:13:51;99851.00;;;27.03;43.56
58082;BME280;43876;55.576;38.242;2022-07-03T02:17:18;99847.25;;;28.64;41.05
58082;BME280;43876;55.576;38.242;2022-07-03T02:19:56;99839.34;;;29.83;38.39
58082;BME280;43876;55.576;38.242;2022-07-03T02:22:32;99849.34;;;30.95;36.15
58082;BME280;43876;55.576;38.242;2022-07-03T02:25:08;99837.84;;;31.69;34.51
58082;BME280;43876;55.576;38.242;2022-07-03T02:28:06;99848.22;;;32.36;32.91
58082;BME280;43876;55.576;38.242;2022-07-03T02:30:35;99844.38;;;32.70;31.69
58082;BME280;43876;55.576;38.242;2022-07-03T02:33:02;99839.56;;;32.73;31.30
58082;BME280;43876;55.576;38.242;2022-07-03T02:35:32;99840.81;;;33.10;31.05
58082;BME280;43876;55.576;38.242;2022-07-03T02:38:16;99843.53;;;33.49;30.58
58082;BME280;43876;55.576;38.242;2022-07-03T02:43:24;99841.94;;;34.52;30.88
58082;BME280;43876;55.576;38.242;2022-07-03T02:46:17;99834.50;;;34.63;28.63
58082;BME280;43876;55.576;38.242;2022-07-03T02:51:48;99846.31;;;34.62;28.59
58082;BME280;43876;55.576;38.242;2022-07-03T02:54:18;99842.47;;;34.93;28.15
58082;BME280;43876;55.576;38.242;2022-07-03T02:57:00;99844.81;;;35.05;27.86
58082;BME280;43876;55.576;38.242;2022-07-03T03:00:00;99829.41;;;35.42;27.10
58082;BME280;43876;55.576;38.242;2022-07-03T03:05:20;99828.63;;;36.72;25.42
58082;BME280;43876;55.576;38.242;2022-07-03T03:10:40;99833.56;;;37.93;23.97
58082;BME280;43876;55.576;38.242;2022-07-03T03:13:11;99845.34;;;38.66;23.05
58082;BME280;43876;55.576;38.242;2022-07-03T03:15:41;99823.19;;;39.00;23.02
58082;BME280;43876;55.576;38.242;2022-07-03T03:18:11;99839.72;;;39.53;22.71
58082;BME280;43876;55.576;38.242;2022-07-03T03:20:42;99843.19;;;39.70;22.21
58082;BME280;43876;55.576;38.242;2022-07-03T03:26:24;99834.63;;;40.85;20.92
58082;BME280;43876;55.576;38.242;2022-07-03T03:28:52;99829.28;;;41.35;19.95
58082;BME280;43876;55.576;38.242;2022-07-03T03:31:19;99803.75;;;41.34;19.70
58082;BME280;43876;55.576;38.242;2022-07-03T03:33:48;99822.00;;;41.49;19.65
58082;BME280;43876;55.576;38.242;2022-07-03T03:36:19;99821.84;;;41.14;19.45
58082;BME280;43876;55.576;38.242;2022-07-03T03:38:48;99833.75;;;40.85;19.83
58082;BME280;43876;55.576;38.242;2022-07-03T03:41:16;99829.94;;;41.01;19.68
58082;BME280;43876;55.576;38.242;2022-07-03T03:43:44;99832.97;;;41.27;19.82
58082;BME280;43876;55.576;38.242;2022-07-03T03:46:14;99840.31;;;41.63;19.61
58082;BME280;43876;55.576;38.242;2022-07-03T03:48:44;99834.50;;;42.01;18.92
58082;BME280;43876;55.576;38.242;2022-07-03T03:51:11;99810.72;;;42.08;19.23
58082;BME280;43876;55.576;38.242;2022-07-03T03:53:40;99839.38;;;42.82;18.60
58082;BME280;43876;55.576;38.242;2022-07-03T03:56:09;99821.59;;;42.71;18.07
58082;BME280;43876;55.576;38.242;2022-07-03T03:58:38;99813.41;;;42.37;18.58
58082;BME280;43876;55.576;38.242;2022-07-03T04:01:07;99827.38;;;42.42;18.67
58082;BME280;43876;55.576;38.242;2022-07-03T04:03:35;99823.25;;;42.66;17.98
58082;BME280;43876;55.576;38.242;2022-07-03T04:06:02;99822.63;;;42.29;18.75
58082;BME280;43876;55.576;38.242;2022-07-03T04:08:31;99818.31;;;42.41;18.85
58082;BME280;43876;55.576;38.242;2022-07-03T04:10:58;99809.34;;;42.74;19.33
58082;BME280;43876;55.576;38.242;2022-07-03T04:13:27;99808.34;;;42.82;18.18
58082;BME280;43876;55.576;38.242;2022-07-03T04:15:55;99808.91;;;43.32;17.90
58082;BME280;43876;55.576;38.242;2022-07-03T04:18:22;99809.59;;;42.72;18.41
58082;BME280;43876;55.576;38.242;2022-07-03T04:20:50;99812.91;;;41.05;19.69
58082;BME280;43876;55.576;38.242;2022-07-03T04:23:17;99808.97;;;38.26;23.19
58082;BME280;43876;55.576;38.242;2022-07-03T04:25:45;99805.22;;;35.48;26.93
58082;BME280;43876;55.576;38.242;2022-07-03T04:28:12;99812.22;;;33.65;29.97
58082;BME280;43876;55.576;38.242;2022-07-03T04:30:46;99804.56;;;32.41;32.06
58082;BME280;43876;55.576;38.242;2022-07-03T04:33:13;99810.47;;;31.41;33.81
58082;BME280;43876;55.576;38.242;2022-07-03T04:35:40;99804.41;;;30.39;35.63
58082;BME280;43876;55.576;38.242;2022-07-03T04:38:07;99813.53;;;30.02;36.04
58082;BME280;43876;55.576;38.242;2022-07-03T04:40:34;99809.19;;;29.31;37.46
58082;BME280;43876;55.576;38.242;2022-07-03T04:43:01;99816.22;;;28.84;38.80
58082;BME280;43876;55.576;38.242;2022-07-03T04:45:28;99813.28;;;28.63;39.52
58082;BME280;43876;55.576;38.242;2022-07-03T04:47:55;99784.50;;;28.26;40.29
58082;BME280;43876;55.576;38.242;2022-07-03T04:50:23;99812.25;;;28.27;40.50
58082;BME280;43876;55.576;38.242;2022-07-03T04:52:50;99815.56;;;28.17;40.97
58082;BME280;43876;55.576;38.242;2022-07-03T04:55:17;99818.53;;;27.74;42.13
58082;BME280;43876;55.576;38.242;2022-07-03T04:57:44;99819.56;;;27.46;43.08
58082;BME280;43876;55.576;38.242;2022-07-03T05:00:11;99814.38;;;27.30;43.46
58082;BME280;43876;55.576;38.242;2022-07-03T05:02:38;99825.31;;;27.13;43.97
58082;BME280;43876;55.576;38.242;2022-07-03T05:05:06;99823.94;;;26.93;44.74
58082;BME280;43876;55.576;38.242;2022-07-03T05:07:34;99823.88;;;26.80;45.22
58082;BME280;43876;55.576;38.242;2022-07-03T05:10:01;99817.34;;;26.84;45.13
58082;BME280;43876;55.576;38.242;2022-07-03T05:12:28;99811.28;;;26.68;45.81
58082;BME280;43876;55.576;38.242;2022-07-03T05:14:55;99822.47;;;26.74;46.25
58082;BME280;43876;55.576;38.242;2022-07-03T05:17:22;99820.50;;;26.91;45.46
58082;BME280;43876;55.576;38.242;2022-07-03T05:19:50;99818.56;;;26.93;45.78
58082;BME280;43876;55.576;38.242;2022-07-03T05:22:39;99812.22;;;27.08;45.63
58082;BME280;43876;55.576;38.242;2022-07-03T05:25:07;99816.41;;;27.12;45.03
58082;BME280;43876;55.576;38.242;2022-07-03T05:27:37;99825.81;;;26.78;46.01
58082;BME280;43876;55.576;38.242;2022-07-03T05:30:05;99786.41;;;26.51;46.31
58082;BME280;43876;55.576;38.242;2022-07-03T05:32:33;99804.59;;;26.46;46.69
58082;BME280;43876;55.576;38.242;2022-07-03T05:35:00;99829.06;;;26.54;46.95
58082;BME280;43876;55.576;38.242;2022-07-03T05:37:29;99795.19;;;26.53;46.70
58082;BME280;43876;55.576;38.242;2022-07-03T05:39:57;99813.06;;;26.82;47.00
58082;BME280;43876;55.576;38.242;2022-07-03T05:42:24;99812.81;;;26.99;45.82
58082;BME280;43876;55.576;38.242;2022-07-03T05:44:51;99813.34;;;26.91;46.43
58082;BME280;43876;55.576;38.242;2022-07-03T05:47:18;99816.38;;;27.00;46.57
58082;BME280;43876;55.576;38.242;2022-07-03T05:49:45;99818.19;;;26.99;46.52
58082;BME280;43876;55.576;38.242;2022-07-03T05:52:13;99818.47;;;26.94;46.41
58082;BME280;43876;55.576;38.242;2022-07-03T05:54:41;99815.41;;;27.01;46.29
58082;BME280;43876;55.576;38.242;2022-07-03T05:57:08;99803.38;;;26.93;46.66
58082;BME280;43876;55.576;38.242;2022-07-03T05:59:35;99809.28;;;26.99;47.04
58082;BME280;43876;55.576;38.242;2022-07-03T06:02:02;99804.69;;;27.01;46.88
58082;BME280;43876;55.576;38.242;2022-07-03T06:04:29;99792.84;;;26.90;46.42
58082;BME280;43876;55.576;38.242;2022-07-03T06:06:56;99802.72;;;26.75;47.11
58082;BME280;43876;55.576;38.242;2022-07-03T06:09:24;99812.38;;;26.92;46.46
58082;BME280;43876;55.576;38.242;2022-07-03T06:11:51;99811.13;;;26.98;46.43
58082;BME280;43876;55.576;38.242;2022-07-03T06:14:18;99813.44;;;26.90;46.64
58082;BME280;43876;55.576;38.242;2022-07-03T06:16:45;99809.78;;;26.91;46.21
58082;BME280;43876;55.576;38.242;2022-07-03T06:19:12;99814.28;;;26.90;46.64
58082;BME280;43876;55.576;38.242;2022-07-03T06:21:39;99801.16;;;27.00;46.37
58082;BME280;43876;55.576;38.242;2022-07-03T06:24:06;99815.75;;;27.09;46.26
58082;BME280;43876;55.576;38.242;2022-07-03T06:26:33;99818.03;;;27.15;46.56
58082;BME280;43876;55.576;38.242;2022-07-03T06:29:00;99817.78;;;27.05;46.35
58082;BME280;43876;55.576;38.242;2022-07-03T06:31:27;99795.84;;;27.13;46.15
58082;BME280;43876;55.576;38.242;2022-07-03T06:33:54;99812.53;;;27.31;46.45
58082;BME280;43876;55.576;38.242;2022-07-03T06:36:21;99813.69;;;27.54;46.33
58082;BME280;43876;55.576;38.242;2022-07-03T06:38:48;99812.25;;;27.48;46.63
58082;BME280;43876;55.576;38.242;2022-07-03T06:41:15;99800.47;;;27.51;46.18
58082;BME280;43876;55.576;38.242;2022-07-03T06:43:42;99820.03;;;27.66;45.12
58082;BME280;43876;55.576;38.242;2022-07-03T06:46:09;99793.91;;;27.42;45.24
58082;BME280;43876;55.576;38.242;2022-07-03T06:48:37;99806.22;;;27.45;45.93
58082;BME280;43876;55.576;38.242;2022-07-03T06:51:04;99810.25;;;27.52;45.85
58082;BME280;43876;55.576;38.242;2022-07-03T06:53:31;99823.47;;;27.68;45.99
58082;BME280;43876;55.576;38.242;2022-07-03T06:55:58;99814.03;;;27.62;45.06
58082;BME280;43876;55.576;38.242;2022-07-03T06:58:25;99813.91;;;27.64;44.73
58082;BME280;43876;55.576;38.242;2022-07-03T07:00:52;99818.94;;;27.68;44.06
58082;BME280;43876;55.576;38.242;2022-07-03T07:03:21;99819.91;;;27.54;44.38
58082;BME280;43876;55.576;38.242;2022-07-03T07:05:48;99809.94;;;27.69;43.82
58082;BME280;43876;55.576;38.242;2022-07-03T07:08:15;99814.47;;;27.69;44.02
58082;BME280;43876;55.576;38.242;2022-07-03T07:10:42;99815.53;;;27.66;43.82
58082;BME280;43876;55.576;38.242;2022-07-03T07:13:09;99807.69;;;27.63;42.62
58082;BME280;43876;55.576;38.242;2022-07-03T07:15:37;99819.06;;;27.67;42.89
58082;BME280;43876;55.576;38.242;2022-07-03T07:18:04;99804.16;;;27.63;43.31
58082;BME280;43876;55.576;38.242;2022-07-03T07:20:31;99823.13;;;27.72;44.00
58082;BME280;43876;55.576;38.242;2022-07-03T07:22:58;99809.88;;;27.84;43.90
58082;BME280;43876;55.576;38.242;2022-07-03T07:25:26;99821.16;;;28.02;43.80
58082;BME280;43876;55.576;38.242;2022-07-03T07:27:54;99789.38;;;27.95;43.31
58082;BME280;43876;55.576;38.242;2022-07-03T07:30:21;99809.16;;;28.07;42.98
58082;BME280;43876;55.576;38.242;2022-07-03T07:32:48;99789.38;;;27.95;43.32
58082;BME280;43876;55.576;38.242;2022-07-03T07:35:22;99814.06;;;28.26;42.71
58082;BME280;43876;55.576;38.242;2022-07-03T07:37:49;99821.38;;;28.11;42.72
58082;BME280;43876;55.576;38.242;2022-07-03T07:40:16;99815.91;;;28.13;42.47
58082;BME280;43876;55.576;38.242;2022-07-03T07:42:43;99830.72;;;28.06;42.94
58082;BME280;43876;55.576;38.242;2022-07-03T07:45:11;99820.84;;;28.19;42.17
58082;BME280;43876;55.576;38.242;2022-07-03T07:47:38;99809.16;;;28.20;42.23
58082;BME280;43876;55.576;38.242;2022-07-03T07:50:08;99801.94;;;28.21;42.25
58082;BME280;43876;55.576;38.242;2022-07-03T07:52:36;99808.81;;;28.25;42.18
58082;BME280;43876;55.576;38.242;2022-07-03T07:55:03;99806.22;;;28.36;41.65
58082;BME280;43876;55.576;38.242;2022-07-03T07:57:39;99821.16;;;28.40;41.38
58082;BME280;43876;55.576;38.242;2022-07-03T08:00:15;99802.78;;;28.34;41.52
58082;BME280;43876;55.576;38.242;2022-07-03T08:02:43;99809.34;;;28.30;41.61
58082;BME280;43876;55.576;38.242;2022-07-03T08:05:30;99805.97;;;28.39;41.37
58082;BME280;43876;55.576;38.242;2022-07-03T08:08:07;99808.91;;;28.36;40.81
58082;BME280;43876;55.576;38.242;2022-07-03T08:10:38;99787.94;;;28.28;40.18
58082;BME280;43876;55.576;38.242;2022-07-03T08:13:06;99819.72;;;28.47;39.54
58082;BME280;43876;55.576;38.242;2022-07-03T08:15:33;99802.31;;;28.66;39.00
58082;BME280;43876;55.576;38.242;2022-07-03T08:18:01;99809.81;;;28.73;39.22
58082;BME280;43876;55.576;38.242;2022-07-03T08:20:29;99808.00;;;28.74;39.05
58082;BME280;43876;55.576;38.242;2022-07-03T08:22:56;99808.09;;;28.72;37.88
58082;BME280;43876;55.576;38.242;2022-07-03T08:25:24;99824.41;;;28.82;37.84
58082;BME280;43876;55.576;38.242;2022-07-03T08:27:52;99818.38;;;28.91;36.74
58082;BME280;43876;55.576;38.242;2022-07-03T08:30:19;99816.06;;;28.74;36.53
58082;BME280;43876;55.576;38.242;2022-07-03T08:32:48;99801.13;;;28.70;36.95
58082;BME280;43876;55.576;38.242;2022-07-03T08:35:16;99818.88;;;28.47;37.58
58082;BME280;43876;55.576;38.242;2022-07-03T08:37:43;99801.91;;;28.59;36.95
58082;BME280;43876;55.576;38.242;2022-07-03T08:40:13;99823.94;;;28.51;36.44
58082;BME280;43876;55.576;38.242;2022-07-03T08:42:52;99807.66;;;28.78;35.57
58082;BME280;43876;55.576;38.242;2022-07-03T08:45:24;99787.91;;;28.91;35.37
58082;BME280;43876;55.576;38.242;2022-07-03T08:47:54;99814.16;;;29.24;35.57
58082;BME280;43876;55.576;38.242;2022-07-03T08:50:21;99801.72;;;29.10;35.14
58082;BME280;43876;55.576;38.242;2022-07-03T08:52:49;99804.63;;;29.07;35.39
58082;BME280;43876;55.576;38.242;2022-07-03T08:55:17;99783.81;;;28.98;34.89
58082;BME280;43876;55.576;38.242;2022-07-03T08:57:47;99809.25;;;29.05;35.11
58082;BME280;43876;55.576;38.242;2022-07-03T09:00:16;99796.91;;;29.03;35.41
58082;BME280;43876;55.576;38.242;2022-07-03T09:02:45;99811.16;;;28.92;36.27
58082;BME280;43876;55.576;38.242;2022-07-03T09:05:14;99811.25;;;28.90;35.76
58082;BME280;43876;55.576;38.242;2022-07-03T09:07:43;99798.91;;;28.88;34.90
58082;BME280;43876;55.576;38.242;2022-07-03T09:10:12;99782.59;;;28.78;36.14
58082;BME280;43876;55.576;38.242;2022-07-03T09:12:45;99807.22;;;29.09;36.39
58082;BME280;43876;55.576;38.242;2022-07-03T09:15:12;99788.00;;;29.02;35.29
58082;BME280;43876;55.576;38.242;2022-07-03T09:17:40;99811.94;;;29.18;36.09
58082;BME280;43876;55.576;38.242;2022-07-03T09:20:27;99806.84;;;29.26;34.19
58082;BME280;43876;55.576;38.242;2022-07-03T09:23:08;99810.06;;;29.43;33.31
58082;BME280;43876;55.576;38.242;2022-07-03T09:25:49;99795.78;;;29.53;32.76
58082;BME280;43876;55.576;38.242;2022-07-03T09:28:18;99796.81;;;29.64;32.76
58082;BME280;43876;55.576;38.242;2022-07-03T09:31:01;99790.16;;;29.45;32.78
58082;BME280;43876;55.576;38.242;2022-07-03T09:33:29;99806.81;;;29.50;32.21
58082;BME280;43876;55.576;38.242;2022-07-03T09:35:56;99805.19;;;29.36;33.16
58082;BME280;43876;55.576;38.242;2022-07-03T09:38:23;99799.56;;;29.39;31.63
58082;BME280;43876;55.576;38.242;2022-07-03T09:40:52;99791.00;;;29.46;31.47
58082;BME280;43876;55.576;38.242;2022-07-03T09:43:23;99777.19;;;29.50;31.72
58082;BME280;43876;55.576;38.242;2022-07-03T09:46:17;99808.38;;;29.77;31.77
58082;BME280;43876;55.576;38.242;2022-07-03T09:48:45;99806.09;;;29.59;31.30
58082;BME280;43876;55.576;38.242;2022-07-03T09:53:53;99809.84;;;28.97;31.32
58082;BME280;43876;55.576;38.242;2022-07-03T09:59:22;99784.53;;;29.13;32.40
58082;BME280;43876;55.576;38.242;2022-07-03T10:01:48;99772.25;;;29.33;32.54
58082;BME280;43876;55.576;38.242;2022-07-03T10:04:20;99795.41;;;29.71;31.56
58082;BME280;43876;55.576;38.242;2022-07-03T10:07:00;99796.38;;;29.81;30.99
58082;BME280;43876;55.576;38.242;2022-07-03T10:09:29;99778.28;;;29.72;31.40
58082;BME280;43876;55.576;38.242;2022-07-03T10:11:58;99769.97;;;29.86;30.72
58082;BME280;43876;55.576;38.242;2022-07-03T10:14:28;99791.91;;;30.04;30.35
58082;BME280;43876;55.576;38.242;2022-07-03T10:16:55;99789.69;;;30.09;30.10
58082;BME280;43876;55.576;38.242;2022-07-03T10:19:29;99795.53;;;29.92;30.78
58082;BME280;43876;55.576;38.242;2022-07-03T10:22:01;99783.81;;;29.93;31.13
58082;BME280;43876;55.576;38.242;2022-07-03T10:24:30;99795.06;;;29.87;31.74
58082;BME280;43876;55.576;38.242;2022-07-03T10:26:58;99787.50;;;29.56;32.28
58082;BME280;43876;55.576;38.242;2022-07-03T10:29:27;99779.66;;;29.53;32.94
58082;BME280;43876;55.576;38.242;2022-07-03T10:31:56;99788.31;;;29.81;31.97
58082;BME280;43876;55.576;38.242;2022-07-03T10:34:26;99763.72;;;29.86;31.54
58082;BME280;43876;55.576;38.242;2022-07-03T10:36:58;99787.72;;;30.11;31.24
58082;BME280;43876;55.576;38.242;2022-07-03T10:42:31;99767.69;;;30.27;31.11
58082;BME280;43876;55.576;38.242;2022-07-03T10:45:19;99768.19;;;30.32;30.26
58082;BME280;43876;55.576;38.242;2022-07-03T10:47:48;99776.16;;;30.33;30.14
58082;BME280;43876;55.576;38.242;2022-07-03T10:50:17;99783.09;;;30.25;29.73
58082;BME280;43876;55.576;38.242;2022-07-03T10:52:46;99757.75;;;29.93;30.53
58082;BME280;43876;55.576;38.242;2022-07-03T10:55:15;99772.19;;;29.92;30.91
58082;BME280;43876;55.576;38.242;2022-07-03T10:57:44;99773.09;;;29.69;31.25
58082;BME280;43876;55.576;38.242;2022-07-03T11:00:30;99747.34;;;29.89;31.24
58082;BME280;43876;55.576;38.242;2022-07-03T11:02:57;99757.03;;;30.36;30.41
58082;BME280;43876;55.576;38.242;2022-07-03T11:05:37;99760.56;;;30.37;30.50
58082;BME280;43876;55.576;38.242;2022-07-03T11:09:15;99729.34;;;30.34;30.15
58082;BME280;43876;55.576;38.242;2022-07-03T11:11:47;99763.22;;;30.71;30.30
58082;BME280;43876;55.576;38.242;2022-07-03T11:14:27;99760.06;;;30.66;30.37
58082;BME280;43876;55.576;38.242;2022-07-03T11:17:20;99748.31;;;30.33;30.72
58082;BME280;43876;55.576;38.242;2022-07-03T11:19:49;99753.47;;;30.25;31.03
58082;BME280;43876;55.576;38.242;2022-07-03T11:23:07;99747.72;;;30.18;30.21
58082;BME280;43876;55.576;38.242;2022-07-03T11:25:43;99741.09;;;30.22;30.01
58082;BME280;43876;55.576;38.242;2022-07-03T11:33:44;99754.44;;;29.43;31.61
58082;BME280;43876;55.576;38.242;2022-07-03T11:36:26;99753.91;;;29.27;31.96
58082;BME280;43876;55.576;38.242;2022-07-03T11:41:29;99768.63;;;29.45;32.15
58082;BME280;43876;55.576;38.242;2022-07-03T11:43:59;99738.22;;;29.56;32.77
58082;BME280;43876;55.576;38.242;2022-07-03T11:46:30;99753.81;;;29.86;32.71
58082;BME280;43876;55.576;38.242;2022-07-03T11:49:18;99748.44;;;29.86;32.12
58082;BME280;43876;55.576;38.242;2022-07-03T11:51:59;99745.00;;;29.95;31.89
58082;BME280;43876;55.576;38.242;2022-07-03T11:54:32;99741.31;;;29.96;31.59
58082;BME280;43876;55.576;38.242;2022-07-03T11:57:00;99730.06;;;30.02;32.11
58082;BME280;43876;55.576;38.242;2022-07-03T11:59:28;99740.22;;;30.21;31.23
58082;BME280;43876;55.576;38.242;2022-07-03T12:02:03;99748.31;;;30.10;30.98
58082;BME280;43876;55.576;38.242;2022-07-03T12:04:31;99746.72;;;29.96;30.59
58082;BME280;43876;55.576;38.242;2022-07-03T12:07:00;99745.22;;;29.70;31.42
58082;BME280;43876;55.576;38.242;2022-07-03T12:09:30;99745.28;;;29.92;31.99
58082;BME280;43876;55.576;38.242;2022-07-03T12:19:17;99694.81;;;29.83;31.58
58082;BME280;43876;55.576;38.242;2022-07-03T12:22:34;99700.94;;;30.19;31.12
58082;BME280;43876;55.576;38.242;2022-07-03T12:25:07;99735.44;;;30.59;29.93
58082;BME280;43876;55.576;38.242;2022-07-03T12:28:25;99720.38;;;30.56;29.53
58082;BME280;43876;55.576;38.242;2022-07-03T12:32:25;99707.41;;;30.39;30.10
58082;BME280;43876;55.576;38.242;2022-07-03T12:34:53;99749.56;;;30.40;30.43
58082;BME280;43876;55.576;38.242;2022-07-03T12:37:36;99706.34;;;29.85;30.99
58082;BME280;43876;55.576;38.242;2022-07-03T12:44:04;99711.19;;;29.69;31.46
58082;BME280;43876;55.576;38.242;2022-07-03T12:49:11;99697.16;;;29.99;30.82
58082;BME280;43876;55.576;38.242;2022-07-03T12:51:46;99727.03;;;30.18;30.82
58082;BME280;43876;55.576;38.242;2022-07-03T12:56:42;99733.56;;;29.58;32.34
58082;BME280;43876;55.576;38.242;2022-07-03T12:59:28;99725.22;;;29.38;32.48
58082;BME280;43876;55.576;38.242;2022-07-03T13:02:04;99729.34;;;29.31;32.71
58082;BME280;43876;55.576;38.242;2022-07-03T13:04:34;99744.44;;;29.21;33.26
58082;BME280;43876;55.576;38.242;2022-07-03T13:07:03;99722.63;;;29.37;32.58
58082;BME280;43876;55.576;38.242;2022-07-03T13:09:35;99719.50;;;29.66;32.01
58082;BME280;43876;55.576;38.242;2022-07-03T13:12:03;99723.22;;;29.76;31.75
58082;BME280;43876;55.576;38.242;2022-07-03T13:14:32;99725.06;;;29.75;31.96
58082;BME280;43876;55.576;38.242;2022-07-03T13:16:59;99708.00;;;29.64;31.59
58082;BME280;43876;55.576;38.242;2022-07-03T13:19:28;99717.72;;;29.77;32.40
58082;BME280;43876;55.576;38.242;2022-07-03T13:21:56;99689.78;;;29.56;31.36
58082;BME280;43876;55.576;38.242;2022-07-03T13:24:24;99714.75;;;29.58;32.17
58082;BME280;43876;55.576;38.242;2022-07-03T13:26:53;99693.22;;;29.58;32.06
58082;BME280;43876;55.576;38.242;2022-07-03T13:29:21;99711.34;;;29.78;31.45
58082;BME280;43876;55.576;38.242;2022-07-03T13:31:52;99711.13;;;29.82;30.88
58082;BME280;43876;55.576;38.242;2022-07-03T13:34:20;99716.84;;;29.77;31.42
58082;BME280;43876;55.576;38.242;2022-07-03T13:36:48;99699.09;;;29.86;31.58
58082;BME280;43876;55.576;38.242;2022-07-03T13:39:20;99706.69;;;29.92;30.80
58082;BME280;43876;55.576;38.242;2022-07-03T13:41:47;99689.69;;;29.91;31.09
58082;BME280;43876;55.576;38.242;2022-07-03T13:44:16;99691.16;;;30.07;30.67
58082;BME280;43876;55.576;38.242;2022-07-03T13:46:46;99703.00;;;30.15;30.68
58082;BME280;43876;55.576;38.242;2022-07-03T13:49:23;99706.44;;;30.17;31.24
58082;BME280;43876;55.576;38.242;2022-07-03T13:51:51;99684.69;;;29.87;30.88
58082;BME280;43876;55.576;38.242;2022-07-03T13:54:30;99686.59;;;29.62;31.39
58082;BME280;43876;55.576;38.242;2022-07-03T13:57:01;99694.94;;;29.70;31.76
58082;BME280;43876;55.576;38.242;2022-07-03T13:59:55;99644.63;;;29.48;31.72
58082;BME280;43876;55.576;38.242;2022-07-03T14:07:05;99671.81;;;29.10;32.73
58082;BME280;43876;55.576;38.242;2022-07-03T14:13:07;99718.31;;;29.70;32.04
58082;BME280;43876;55.576;38.242;2022-07-03T14:17:01;99645.00;;;29.55;31.78
58082;BME280;43876;55.576;38.242;2022-07-03T14:20:16;99664.25;;;29.73;31.66